createdAt,value
2023-03-21T00:00:07.019Z,284.42
2023-03-21T00:01:05.733Z,285.65
2023-03-21T00:02:06.055Z,284.91
2023-03-21T00:03:05.721Z,284.42
2023-03-21T00:04:05.975Z,283.68
2023-03-21T00:05:15.308Z,284.42
2023-03-21T00:06:06.938Z,283.92
2023-03-21T00:07:05.550Z,281.01
2023-03-21T00:08:05.920Z,283.92
2023-03-21T00:09:05.728Z,284.17
2023-03-21T00:10:15.450Z,283.43
2023-03-21T00:11:06.732Z,284.17
2023-03-21T00:12:05.727Z,285.16
2023-03-21T00:13:05.867Z,283.68
2023-03-21T00:14:05.735Z,283.19
2023-03-21T00:15:05.739Z,282.46
2023-03-21T00:16:12.729Z,282.94
2023-03-21T00:17:06.618Z,284.17
2023-03-21T00:18:05.785Z,284.66
2023-03-21T00:19:05.073Z,284.66
2023-03-21T00:20:05.995Z,284.91
2023-03-21T00:21:37.582Z,285.65
2023-03-21T00:22:08.802Z,284.66
2023-03-21T00:23:05.711Z,285.65
2023-03-21T00:24:05.700Z,285.40
2023-03-21T00:25:05.669Z,284.17
2023-03-21T00:26:05.674Z,287.15
2023-03-21T00:27:33.731Z,288.16
2023-03-21T00:28:08.724Z,287.66
2023-03-21T00:29:05.409Z,287.40
2023-03-21T00:30:05.598Z,287.66
2023-03-21T00:31:05.597Z,289.69
2023-03-21T00:32:05.597Z,290.20
2023-03-21T00:33:21.800Z,291.49
2023-03-21T00:34:07.287Z,289.18
2023-03-21T00:35:40.753Z,290.71
2023-03-21T00:36:07.321Z,291.23
2023-03-21T00:37:05.528Z,289.94
2023-03-21T00:38:05.513Z,295.16
2023-03-21T00:39:05.511Z,292.53
2023-03-21T00:40:07.009Z,292.79
2023-03-21T00:41:18.759Z,293.31
2023-03-21T00:42:06.462Z,293.05
2023-03-21T00:43:05.651Z,295.69
2023-03-21T00:44:05.430Z,296.49
2023-03-21T00:45:05.403Z,296.23
2023-03-21T00:46:05.416Z,298.38
2023-03-21T00:47:07.827Z,297.84
2023-03-21T00:48:05.487Z,296.23
2023-03-21T00:49:05.378Z,301.12
2023-03-21T00:50:05.321Z,297.84
2023-03-21T00:51:05.328Z,299.20
2023-03-21T00:52:15.068Z,300.29
2023-03-21T00:53:06.314Z,298.11
2023-03-21T00:54:05.287Z,299.47
2023-03-21T00:55:05.260Z,300.57
2023-03-21T00:56:05.282Z,299.74
2023-03-21T00:57:05.271Z,301.95
2023-03-21T00:58:05.245Z,300.84
2023-03-21T00:59:05.248Z,300.84
2023-03-21T01:00:05.194Z,299.47
2023-03-21T01:01:05.273Z,299.47
2023-03-21T01:02:05.263Z,300.02
2023-03-21T01:03:17.599Z,300.57
2023-03-21T01:04:06.164Z,299.20
2023-03-21T01:05:05.177Z,298.65
2023-03-21T01:06:05.149Z,298.38
2023-03-21T01:07:05.125Z,297.03
2023-03-21T01:08:17.083Z,297.57
2023-03-21T01:09:06.101Z,297.84
2023-03-21T01:10:05.071Z,297.57
2023-03-21T01:11:05.074Z,295.16
2023-03-21T01:12:05.772Z,297.30
2023-03-21T01:13:05.049Z,296.76
2023-03-21T01:14:20.956Z,294.10
2023-03-21T01:15:05.332Z,295.96
2023-03-21T01:16:04.788Z,295.69
2023-03-21T01:17:04.782Z,293.05
2023-03-21T01:18:04.776Z,293.84
2023-03-21T01:19:07.083Z,291.49
2023-03-21T01:20:04.935Z,292.79
2023-03-21T01:21:04.785Z,291.49
2023-03-21T01:22:04.937Z,290.46
2023-03-21T01:23:04.806Z,290.97
2023-03-21T01:24:04.908Z,290.97
2023-03-21T01:25:21.053Z,291.23
2023-03-21T01:26:05.883Z,290.46
2023-03-21T01:27:04.863Z,289.69
2023-03-21T01:28:04.850Z,287.66
2023-03-21T01:29:04.695Z,288.67
2023-03-21T01:30:11.305Z,287.40
2023-03-21T01:31:05.718Z,285.40
2023-03-21T01:32:04.800Z,286.90
2023-03-21T01:33:04.700Z,285.40
2023-03-21T01:34:04.696Z,285.90
2023-03-21T01:35:04.339Z,282.46
2023-03-21T01:36:12.710Z,284.17
2023-03-21T01:37:06.494Z,283.92
2023-03-21T01:38:05.707Z,282.70
2023-03-21T01:39:04.719Z,282.21
2023-03-21T01:40:05.416Z,280.77
2023-03-21T01:41:17.115Z,279.81
2023-03-21T01:42:05.676Z,279.09
2023-03-21T01:43:04.654Z,279.33
2023-03-21T01:44:04.631Z,278.86
2023-03-21T01:45:04.594Z,277.44
2023-03-21T01:46:04.686Z,278.62
2023-03-21T01:47:11.039Z,276.51
2023-03-21T01:48:05.662Z,275.11
2023-03-21T01:49:04.561Z,276.51
2023-03-21T01:50:04.533Z,275.58
2023-03-21T01:51:04.542Z,277.44
2023-03-21T01:52:12.809Z,273.97
2023-03-21T01:53:05.506Z,273.74
2023-03-21T01:54:04.497Z,273.05
2023-03-21T01:55:04.469Z,271.70
2023-03-21T01:56:04.466Z,273.05
2023-03-21T01:57:04.457Z,271.70
2023-03-21T01:58:07.053Z,274.88
2023-03-21T01:59:04.425Z,272.37
2023-03-21T02:00:04.394Z,273.97
2023-03-21T02:01:04.525Z,272.15
2023-03-21T02:02:04.391Z,274.65
2023-03-21T02:03:13.587Z,274.65
2023-03-21T02:04:05.618Z,274.65
2023-03-21T02:05:04.351Z,273.05
2023-03-21T02:06:04.325Z,273.97
2023-03-21T02:07:04.338Z,273.05
2023-03-21T02:08:04.313Z,276.04
2023-03-21T02:09:04.291Z,272.37
2023-03-21T02:10:04.271Z,274.42
2023-03-21T02:11:04.241Z,274.65
2023-03-21T02:12:04.248Z,273.28
2023-03-21T02:13:04.229Z,273.74
2023-03-21T02:14:06.719Z,274.88
2023-03-21T02:15:04.207Z,275.58
2023-03-21T02:16:04.166Z,275.35
2023-03-21T02:17:04.175Z,276.04
2023-03-21T02:18:04.166Z,273.97
2023-03-21T02:19:04.146Z,277.44
2023-03-21T02:20:04.134Z,277.68
2023-03-21T02:21:04.357Z,275.35
2023-03-21T02:22:03.388Z,275.81
2023-03-21T02:23:03.424Z,274.88
2023-03-21T02:24:04.086Z,275.35
2023-03-21T02:25:10.646Z,275.11
2023-03-21T02:26:05.031Z,274.88
2023-03-21T02:27:04.689Z,275.35
2023-03-21T02:28:04.029Z,277.21
2023-03-21T02:29:04.017Z,276.04
2023-03-21T02:30:03.683Z,275.35
2023-03-21T02:31:03.730Z,278.38
2023-03-21T02:32:17.927Z,276.51
2023-03-21T02:33:04.786Z,276.74
2023-03-21T02:34:03.964Z,276.04
2023-03-21T02:35:03.839Z,277.91
2023-03-21T02:36:13.554Z,277.91
2023-03-21T02:37:04.899Z,277.21
2023-03-21T02:38:03.849Z,277.91
2023-03-21T02:39:03.884Z,276.97
2023-03-21T02:40:03.866Z,277.21
2023-03-21T02:41:10.117Z,278.86
2023-03-21T02:42:04.841Z,278.86
2023-03-21T02:43:04.285Z,278.86
2023-03-21T02:44:04.538Z,279.09
2023-03-21T02:45:04.516Z,280.52
2023-03-21T02:46:04.561Z,279.57
2023-03-21T02:47:06.316Z,278.62
2023-03-21T02:48:04.537Z,280.52
2023-03-21T02:49:03.857Z,280.29
2023-03-21T02:50:03.731Z,281.25
2023-03-21T02:51:04.455Z,280.05
2023-03-21T02:52:14.532Z,282.70
2023-03-21T02:53:04.468Z,280.29
2023-03-21T02:54:29.991Z,282.70
2023-03-21T02:55:04.671Z,282.70
2023-03-21T02:56:03.646Z,283.43
2023-03-21T02:57:03.641Z,283.92
2023-03-21T02:58:12.314Z,285.90
2023-03-21T02:59:03.898Z,285.65
2023-03-21T03:00:15.604Z,285.16
2023-03-21T03:01:05.344Z,284.91
2023-03-21T03:02:03.575Z,284.91
2023-03-21T03:03:09.891Z,286.65
2023-03-21T03:04:04.580Z,285.16
2023-03-21T03:05:11.563Z,285.40
2023-03-21T03:06:04.499Z,285.90
2023-03-21T03:07:03.513Z,287.91
2023-03-21T03:08:03.510Z,285.40
2023-03-21T03:09:03.479Z,289.18
2023-03-21T03:10:03.466Z,287.40
2023-03-21T03:11:03.426Z,286.65
2023-03-21T03:12:03.448Z,288.92
2023-03-21T03:13:03.437Z,287.66
2023-03-21T03:14:21.209Z,288.42
2023-03-21T03:15:04.500Z,287.66
2023-03-21T03:16:03.391Z,290.71
2023-03-21T03:17:03.384Z,290.71
2023-03-21T03:18:03.366Z,290.71
2023-03-21T03:19:03.355Z,289.43
2023-03-21T03:20:15.124Z,291.23
2023-03-21T03:21:04.313Z,291.49
2023-03-21T03:22:03.314Z,292.27
2023-03-21T03:23:03.296Z,290.46
2023-03-21T03:24:03.299Z,292.27
2023-03-21T03:25:17.768Z,293.05
2023-03-21T03:26:04.268Z,293.05
2023-03-21T03:27:03.235Z,293.31
2023-03-21T03:28:03.236Z,293.84
2023-03-21T03:29:03.218Z,294.10
2023-03-21T03:30:03.944Z,295.96
2023-03-21T03:31:09.550Z,293.58
2023-03-21T03:32:04.228Z,294.10
2023-03-21T03:33:03.168Z,294.10
2023-03-21T03:34:02.886Z,297.03
2023-03-21T03:35:03.148Z,296.23
2023-03-21T03:36:06.595Z,295.69
2023-03-21T03:37:02.901Z,296.76
2023-03-21T03:38:02.884Z,296.23
2023-03-21T03:39:02.885Z,295.43
2023-03-21T03:40:03.079Z,296.49
2023-03-21T03:41:03.062Z,297.03
2023-03-21T03:42:18.264Z,297.03
2023-03-21T03:43:04.045Z,297.57
2023-03-21T03:44:02.293Z,296.23
2023-03-21T03:45:03.014Z,297.84
2023-03-21T03:46:03.000Z,299.20
2023-03-21T03:47:02.366Z,298.65
2023-03-21T03:48:03.013Z,298.65
2023-03-21T03:49:02.955Z,296.76
2023-03-21T03:50:02.479Z,300.02
2023-03-21T03:51:02.513Z,298.38
2023-03-21T03:52:02.894Z,299.20
2023-03-21T03:53:07.086Z,298.65
2023-03-21T03:54:03.897Z,299.47
2023-03-21T03:55:02.646Z,301.12
2023-03-21T03:56:02.874Z,298.65
2023-03-21T03:57:02.840Z,301.67
2023-03-21T03:58:04.650Z,299.74
2023-03-21T03:59:02.836Z,300.02
2023-03-21T04:00:02.821Z,299.74
2023-03-21T04:01:03.516Z,302.23
2023-03-21T04:02:02.822Z,303.07
2023-03-21T04:03:03.607Z,301.67
2023-03-21T04:04:12.562Z,303.35
2023-03-21T04:05:03.757Z,301.95
2023-03-21T04:06:03.466Z,303.91
2023-03-21T04:07:03.449Z,303.91
2023-03-21T04:08:03.435Z,302.79
2023-03-21T04:09:07.904Z,303.07
2023-03-21T04:10:04.399Z,303.35
2023-03-21T04:11:02.676Z,304.19
2023-03-21T04:12:02.634Z,304.47
2023-03-21T04:13:02.662Z,303.35
2023-03-21T04:14:02.622Z,305.32
2023-03-21T04:15:10.064Z,305.61
2023-03-21T04:16:03.637Z,305.61
2023-03-21T04:17:02.570Z,306.18
2023-03-21T04:18:01.927Z,305.61
2023-03-21T04:19:02.560Z,306.46
2023-03-21T04:20:11.357Z,305.61
2023-03-21T04:21:03.552Z,307.04
2023-03-21T04:22:02.499Z,307.04
2023-03-21T04:23:02.516Z,307.61
2023-03-21T04:24:02.495Z,306.18
2023-03-21T04:25:02.490Z,307.04
2023-03-21T04:26:02.483Z,306.46
2023-03-21T04:27:03.186Z,308.19
2023-03-21T04:28:02.437Z,308.48
2023-03-21T04:29:02.435Z,308.19
2023-03-21T04:30:02.406Z,308.77
2023-03-21T04:31:08.902Z,309.64
2023-03-21T04:32:03.461Z,308.19
2023-03-21T04:33:02.367Z,309.64
2023-03-21T04:34:02.359Z,309.35
2023-03-21T04:35:02.378Z,309.94
2023-03-21T04:36:02.352Z,309.64
2023-03-21T04:37:02.298Z,310.82
2023-03-21T04:38:02.322Z,309.35
2023-03-21T04:39:02.303Z,312.00
2023-03-21T04:40:02.270Z,313.19
2023-03-21T04:41:02.281Z,311.11
2023-03-21T04:42:02.261Z,309.94
2023-03-21T04:43:02.218Z,311.41
2023-03-21T04:44:02.221Z,310.23
2023-03-21T04:45:02.216Z,312.60
2023-03-21T04:46:01.974Z,311.70
2023-03-21T04:47:01.934Z,311.11
2023-03-21T04:48:01.981Z,310.82
2023-03-21T04:49:01.937Z,311.41
2023-03-21T04:50:01.534Z,311.11
2023-03-21T04:51:02.126Z,312.00
2023-03-21T04:52:02.123Z,311.11
2023-03-21T04:53:02.073Z,311.41
2023-03-21T04:54:02.087Z,311.41
2023-03-21T04:55:01.949Z,310.82
2023-03-21T04:56:01.947Z,310.23
2023-03-21T04:57:02.042Z,312.30
2023-03-21T04:58:01.952Z,312.60
2023-03-21T04:59:02.030Z,313.19
2023-03-21T05:00:02.027Z,312.60
2023-03-21T05:01:01.979Z,311.41
2023-03-21T05:02:01.416Z,307.61
2023-03-21T05:03:01.953Z,307.04
2023-03-21T05:04:02.713Z,307.61
2023-03-21T05:05:02.657Z,305.32
2023-03-21T05:06:01.943Z,306.18
2023-03-21T05:07:01.940Z,306.46
2023-03-21T05:08:01.887Z,305.04
2023-03-21T05:09:01.918Z,307.33
2023-03-21T05:10:02.634Z,305.32
2023-03-21T05:11:01.860Z,306.18
2023-03-21T05:12:01.864Z,308.48
2023-03-21T05:13:02.583Z,307.33
2023-03-21T05:14:01.824Z,309.35
2023-03-21T05:15:01.808Z,308.77
2023-03-21T05:16:01.800Z,308.77
2023-03-21T05:17:01.854Z,310.52
2023-03-21T05:18:01.559Z,307.33
2023-03-21T05:19:01.758Z,309.64
2023-03-21T05:20:01.747Z,311.41
2023-03-21T05:21:01.749Z,310.52
2023-03-21T05:22:01.724Z,308.19
2023-03-21T05:23:01.686Z,310.23
2023-03-21T05:24:01.687Z,310.23
2023-03-21T05:25:01.673Z,309.94
2023-03-21T05:26:01.666Z,310.52
2023-03-21T05:27:01.701Z,308.48
2023-03-21T05:28:01.613Z,309.06
2023-03-21T05:29:01.623Z,309.94
2023-03-21T05:30:02.326Z,309.94
2023-03-21T05:31:01.609Z,308.48
2023-03-21T05:32:01.592Z,307.33
2023-03-21T05:33:01.549Z,308.48
2023-03-21T05:34:01.561Z,308.77
2023-03-21T05:35:01.560Z,306.46
2023-03-21T05:36:01.569Z,308.77
2023-03-21T05:37:01.515Z,308.77
2023-03-21T05:38:00.789Z,310.82
2023-03-21T05:39:01.485Z,308.77
2023-03-21T05:40:01.468Z,309.35
2023-03-21T05:41:01.478Z,309.06
2023-03-21T05:42:01.461Z,309.94
2023-03-21T05:43:01.426Z,309.64
2023-03-21T05:44:01.425Z,308.77
2023-03-21T05:45:01.409Z,306.46
2023-03-21T05:46:01.040Z,306.46
2023-03-21T05:47:01.381Z,305.04
2023-03-21T05:48:01.382Z,303.63
2023-03-21T05:49:01.352Z,303.07
2023-03-21T05:50:01.362Z,302.51
2023-03-21T05:51:01.335Z,302.23
2023-03-21T05:52:01.312Z,300.84
2023-03-21T05:53:02.040Z,301.40
2023-03-21T05:54:01.294Z,301.12
2023-03-21T05:55:01.271Z,300.29
2023-03-21T05:56:01.273Z,300.57
2023-03-21T05:57:01.253Z,301.67
2023-03-21T05:58:00.759Z,299.20
2023-03-21T05:59:00.764Z,297.84
2023-03-21T06:00:00.782Z,300.02
2023-03-21T06:01:01.201Z,297.84
2023-03-21T06:02:00.539Z,299.47
2023-03-21T06:03:01.199Z,296.23
2023-03-21T06:04:01.258Z,295.43
2023-03-21T06:05:00.912Z,294.90
2023-03-21T06:06:01.138Z,294.10
2023-03-21T06:07:01.134Z,290.20
2023-03-21T06:08:01.000Z,292.53
2023-03-21T06:09:01.090Z,288.67
2023-03-21T06:10:01.010Z,290.97
2023-03-21T06:11:01.070Z,289.94
2023-03-21T06:12:01.065Z,288.16
2023-03-21T06:13:01.056Z,287.91
2023-03-21T06:14:01.768Z,284.91
2023-03-21T06:15:02.010Z,285.16
2023-03-21T06:16:01.788Z,282.70
2023-03-21T06:17:01.721Z,280.29
2023-03-21T06:18:00.251Z,280.29
2023-03-21T06:19:00.952Z,279.33
2023-03-21T06:20:00.947Z,277.21
2023-03-21T06:21:01.653Z,276.04
2023-03-21T06:22:01.656Z,274.20
2023-03-21T06:23:01.632Z,271.70
2023-03-21T06:24:01.621Z,271.70
2023-03-21T06:25:01.603Z,271.70
2023-03-21T06:26:01.584Z,269.02
2023-03-21T06:27:03.959Z,266.40
2023-03-21T06:28:00.861Z,265.97
2023-03-21T06:29:01.549Z,265.11
2023-03-21T06:30:01.565Z,264.68
2023-03-21T06:31:01.576Z,262.36
2023-03-21T06:32:01.514Z,260.90
2023-03-21T06:33:00.786Z,259.04
2023-03-21T06:34:00.745Z,258.23
2023-03-21T06:35:00.747Z,256.61
2023-03-21T06:36:00.801Z,255.81
2023-03-21T06:37:00.734Z,252.27
2023-03-21T06:38:00.711Z,250.92
2023-03-21T06:39:00.695Z,250.15
2023-03-21T06:40:00.684Z,249.21
2023-03-21T06:41:00.672Z,248.26
2023-03-21T06:42:00.657Z,246.77
2023-03-21T06:43:00.655Z,247.89
2023-03-21T06:44:00.619Z,243.83
2023-03-21T06:45:00.612Z,244.20
2023-03-21T06:46:00.610Z,242.57
2023-03-21T06:47:00.635Z,241.32
2023-03-21T06:48:01.264Z,242.57
2023-03-21T06:49:00.579Z,240.62
2023-03-21T06:49:59.839Z,240.09
2023-03-21T06:51:00.547Z,239.04
2023-03-21T06:52:00.515Z,237.14
2023-03-21T06:53:00.511Z,236.80
2023-03-21T06:54:00.470Z,235.94
2023-03-21T06:55:00.498Z,234.93
2023-03-21T06:56:00.463Z,234.43
2023-03-21T06:57:00.461Z,233.93
2023-03-21T06:58:00.441Z,232.93
2023-03-21T06:59:00.408Z,232.43
2023-03-21T07:00:00.427Z,232.43
2023-03-21T07:01:00.469Z,232.76
2023-03-21T07:02:00.390Z,230.31
2023-03-21T07:03:00.412Z,230.80
2023-03-21T07:04:00.345Z,229.99
2023-03-21T07:05:00.355Z,229.03
2023-03-21T07:05:59.602Z,229.67
2023-03-21T07:07:00.332Z,228.71
2023-03-21T07:08:00.313Z,228.55
2023-03-21T07:09:00.076Z,227.76
2023-03-21T07:10:00.048Z,229.35
2023-03-21T07:11:00.052Z,229.83
2023-03-21T07:12:00.241Z,229.99
2023-03-21T07:13:00.082Z,233.26
2023-03-21T07:14:00.056Z,231.29
2023-03-21T07:15:00.223Z,230.31
2023-03-21T07:16:00.244Z,231.29
2023-03-21T07:17:00.064Z,235.10
2023-03-21T07:18:00.072Z,231.78
2023-03-21T07:19:00.066Z,232.43
2023-03-21T07:19:59.418Z,231.45
2023-03-21T07:21:00.145Z,232.10
2023-03-21T07:21:59.387Z,235.60
2023-03-21T07:23:00.112Z,235.94
2023-03-21T07:24:00.075Z,238.17
2023-03-21T07:25:05.239Z,236.62
2023-03-21T07:26:01.785Z,238.86
2023-03-21T07:27:00.055Z,237.65
2023-03-21T07:28:00.034Z,238.34
2023-03-21T07:29:00.005Z,236.11
2023-03-21T07:30:00.021Z,236.80
2023-03-21T07:30:59.991Z,235.27
2023-03-21T07:32:00.053Z,234.93
2023-03-21T07:32:59.974Z,235.77
2023-03-21T07:33:59.941Z,234.60
2023-03-21T07:35:01.697Z,233.59
2023-03-21T07:35:59.967Z,234.60
2023-03-21T07:36:59.924Z,234.93
2023-03-21T07:37:59.902Z,234.60
2023-03-21T07:38:59.868Z,234.09
2023-03-21T07:39:59.874Z,234.09
2023-03-21T07:40:59.856Z,234.60
2023-03-21T07:42:00.582Z,233.10
2023-03-21T07:42:59.891Z,234.60
2023-03-21T07:43:59.790Z,233.93
2023-03-21T07:44:59.808Z,233.43
2023-03-21T07:45:59.860Z,233.76
2023-03-21T07:46:59.802Z,233.10
2023-03-21T07:47:59.796Z,234.60
2023-03-21T07:48:59.733Z,234.93
2023-03-21T07:49:59.743Z,233.93
2023-03-21T07:50:59.726Z,233.10
2023-03-21T07:51:59.705Z,234.09
2023-03-21T07:52:59.702Z,238.69
2023-03-21T07:53:59.662Z,237.31
2023-03-21T07:54:59.671Z,239.39
2023-03-21T07:55:59.664Z,239.74
2023-03-21T07:56:59.650Z,240.97
2023-03-21T07:57:59.852Z,242.39
2023-03-21T07:58:59.584Z,243.65
2023-03-21T07:59:59.601Z,242.39
2023-03-21T08:00:59.586Z,244.02
2023-03-21T08:01:59.605Z,246.95
2023-03-21T08:02:59.708Z,244.38
2023-03-21T08:03:59.509Z,244.38
2023-03-21T08:04:59.538Z,246.58
2023-03-21T08:05:59.518Z,245.84
2023-03-21T08:06:59.502Z,246.40
2023-03-21T08:07:59.493Z,245.84
2023-03-21T08:08:59.458Z,246.95
2023-03-21T08:09:59.457Z,247.51
2023-03-21T08:10:59.446Z,249.21
2023-03-21T08:11:59.438Z,248.83
2023-03-21T08:12:59.412Z,247.70
2023-03-21T08:13:59.409Z,250.35
2023-03-21T08:15:01.070Z,250.54
2023-03-21T08:15:58.752Z,250.92
2023-03-21T08:16:59.477Z,250.54
2023-03-21T08:17:58.814Z,252.85
2023-03-21T08:18:59.357Z,252.46
2023-03-21T08:19:59.335Z,252.85
2023-03-21T08:20:59.317Z,253.24
2023-03-21T08:21:58.924Z,254.03
2023-03-21T08:22:58.954Z,254.42
2023-03-21T08:23:59.249Z,256.21
2023-03-21T08:24:59.983Z,258.02
2023-03-21T08:25:59.336Z,258.02
2023-03-21T08:26:59.224Z,258.23
2023-03-21T08:27:59.234Z,259.04
2023-03-21T08:28:59.932Z,261.10
2023-03-21T08:29:58.803Z,260.69
2023-03-21T08:30:59.247Z,260.90
2023-03-21T08:31:59.163Z,261.73
2023-03-21T08:33:01.216Z,263.41
2023-03-21T08:33:59.870Z,266.19
2023-03-21T08:34:59.127Z,267.05
2023-03-21T08:35:59.852Z,268.14
2023-03-21T08:36:59.822Z,269.47
2023-03-21T08:37:59.090Z,269.69
2023-03-21T08:38:59.778Z,271.92
2023-03-21T08:39:59.078Z,275.11
2023-03-21T08:41:00.281Z,274.65
2023-03-21T08:41:59.737Z,276.27
2023-03-21T08:42:59.738Z,274.65
2023-03-21T08:43:59.727Z,274.65
2023-03-21T08:44:59.704Z,275.35
2023-03-21T08:45:59.728Z,272.15
2023-03-21T08:46:59.667Z,273.97
2023-03-21T08:47:59.714Z,274.65
2023-03-21T08:48:59.654Z,274.65
2023-03-21T08:49:59.633Z,273.97
2023-03-21T08:50:59.631Z,272.83
2023-03-21T08:51:58.894Z,273.97
2023-03-21T08:52:58.890Z,272.83
2023-03-21T08:53:58.843Z,274.20
2023-03-21T08:54:58.852Z,275.58
2023-03-21T08:55:58.845Z,277.91
2023-03-21T08:56:58.848Z,280.77
2023-03-21T08:57:58.807Z,284.42
2023-03-21T08:58:58.784Z,284.91
2023-03-21T08:59:58.751Z,287.91
2023-03-21T09:00:58.773Z,290.46
2023-03-21T09:01:59.552Z,290.46
2023-03-21T09:02:58.765Z,292.79
2023-03-21T09:03:58.720Z,293.58
2023-03-21T09:04:58.768Z,293.84
2023-03-21T09:05:58.690Z,295.96
2023-03-21T09:06:58.680Z,299.47
2023-03-21T09:07:58.676Z,306.46
2023-03-21T09:08:58.880Z,313.49
2023-03-21T09:10:19.073Z,317.13
2023-03-21T09:10:59.630Z,319.60
2023-03-21T09:11:58.609Z,322.11
2023-03-21T09:12:58.600Z,323.38
2023-03-21T09:13:58.601Z,325.30
2023-03-21T09:14:58.553Z,327.58
2023-03-21T09:15:58.257Z,328.23
2023-03-21T09:16:58.556Z,331.21
2023-03-21T09:17:58.542Z,331.88
2023-03-21T09:18:58.516Z,334.59
2023-03-21T09:19:58.486Z,337.34
2023-03-21T09:20:58.496Z,339.44
2023-03-21T09:21:58.476Z,342.98
2023-03-21T09:22:58.469Z,344.79
2023-03-21T09:23:58.443Z,346.61
2023-03-21T09:24:58.415Z,348.82
2023-03-21T09:25:58.416Z,353.71
2023-03-21T09:26:58.398Z,353.71
2023-03-21T09:27:58.403Z,356.78
2023-03-21T09:28:59.094Z,359.91
2023-03-21T09:29:58.154Z,359.91
2023-03-21T09:30:58.211Z,364.71
2023-03-21T09:31:58.342Z,365.53
2023-03-21T09:32:58.325Z,370.90
2023-03-21T09:33:58.187Z,373.43
2023-03-21T09:34:58.281Z,381.05
2023-03-21T09:35:58.288Z,382.58
2023-03-21T09:36:58.163Z,385.68
2023-03-21T09:37:58.171Z,387.24
2023-03-21T09:38:58.243Z,391.56
2023-03-21T09:39:58.203Z,395.51
2023-03-21T09:40:58.218Z,402.19
2023-03-21T09:41:58.159Z,408.10
2023-03-21T09:42:59.180Z,412.64
2023-03-21T09:43:59.169Z,420.71
2023-03-21T09:44:57.489Z,430.77
2023-03-21T09:45:58.381Z,429.66
2023-03-21T09:46:58.173Z,440.15
2023-03-21T09:47:58.164Z,441.61
2023-03-21T09:48:58.116Z,448.44
2023-03-21T09:50:07.604Z,454.25
2023-03-21T09:50:59.812Z,461.16
2023-03-21T09:51:58.068Z,464.37
2023-03-21T09:52:58.056Z,479.05
2023-03-21T09:53:58.053Z,474.28
2023-03-21T09:54:58.031Z,488.17
2023-03-21T09:55:58.009Z,478.70
2023-03-21T09:56:57.997Z,476.65
2023-03-21T09:57:57.987Z,480.43
2023-03-21T09:58:57.968Z,488.88
2023-03-21T09:59:57.936Z,493.95
2023-03-21T10:00:57.967Z,493.95
2023-03-21T10:01:57.936Z,501.76
2023-03-21T10:02:57.916Z,493.95
2023-03-21T10:03:57.907Z,494.68
2023-03-21T10:04:57.883Z,496.52
2023-03-21T10:05:57.897Z,498.75
2023-03-21T10:06:58.093Z,504.03
2023-03-21T10:07:57.852Z,507.10
2023-03-21T10:08:57.834Z,508.26
2023-03-21T10:09:57.803Z,504.79
2023-03-21T10:10:57.819Z,505.18
2023-03-21T10:11:57.801Z,510.59
2023-03-21T10:12:57.774Z,510.20
2023-03-21T10:13:57.776Z,517.73
2023-03-21T10:14:58.867Z,514.53
2023-03-21T10:15:57.761Z,520.56
2023-03-21T10:16:57.808Z,520.15
2023-03-21T10:17:57.941Z,520.96
2023-03-21T10:18:57.727Z,518.94
2023-03-21T10:19:57.662Z,539.95
2023-03-21T10:20:57.675Z,531.34
2023-03-21T10:22:03.067Z,546.59
2023-03-21T10:22:58.645Z,546.59
2023-03-21T10:23:57.622Z,550.65
2023-03-21T10:24:57.604Z,551.10
2023-03-21T10:25:57.683Z,552.47
2023-03-21T10:26:57.599Z,553.39
2023-03-21T10:27:57.575Z,555.23
2023-03-21T10:28:57.791Z,552.93
2023-03-21T10:29:57.556Z,550.19
2023-03-21T10:30:57.528Z,546.59
2023-03-21T10:31:57.600Z,552.01
2023-03-21T10:32:59.524Z,553.85
2023-03-21T10:33:57.486Z,550.19
2023-03-21T10:35:57.514Z,558.02
2023-03-21T10:36:57.462Z,556.16
2023-03-21T10:37:57.438Z,556.16
2023-03-21T10:38:57.017Z,556.62
2023-03-21T10:39:57.637Z,561.31
2023-03-21T10:40:57.078Z,552.01
2023-03-21T10:41:57.387Z,555.23
2023-03-21T10:42:57.133Z,553.39
2023-03-21T10:43:57.363Z,552.01
2023-03-21T10:44:57.398Z,548.83
2023-03-21T10:45:57.469Z,549.74
2023-03-21T10:46:57.643Z,552.01
2023-03-21T10:47:57.455Z,554.31
2023-03-21T10:48:56.894Z,554.77
2023-03-21T10:50:07.164Z,545.24
2023-03-21T10:50:59.070Z,545.69
2023-03-21T10:51:57.241Z,544.80
2023-03-21T10:52:57.944Z,542.14
2023-03-21T10:53:57.227Z,538.20
2023-03-21T10:54:57.916Z,538.64
2023-03-21T10:55:57.916Z,533.47
2023-03-21T10:56:57.201Z,527.14
2023-03-21T10:57:57.885Z,512.16
2023-03-21T10:58:57.861Z,507.48
2023-03-21T10:59:57.853Z,509.03
2023-03-21T11:00:58.007Z,504.79
2023-03-21T11:01:57.870Z,496.89
2023-03-21T11:02:57.814Z,496.16
2023-03-21T11:03:57.814Z,495.05
2023-03-21T11:04:57.069Z,489.96
2023-03-21T11:05:57.039Z,491.77
2023-03-21T11:06:57.034Z,492.13
2023-03-21T11:07:57.744Z,489.24
2023-03-21T11:08:57.743Z,478.02
2023-03-21T11:09:57.722Z,471.59
2023-03-21T11:10:57.722Z,460.52
2023-03-21T11:11:56.971Z,464.05
2023-03-21T11:12:57.692Z,457.99
2023-03-21T11:13:56.956Z,452.40
2023-03-21T11:14:56.929Z,448.44
2023-03-21T11:15:56.903Z,450.56
2023-03-21T11:16:56.913Z,447.84
2023-03-21T11:17:56.889Z,441.90
2023-03-21T11:18:56.898Z,440.45
2023-03-21T11:19:56.875Z,437.55
2023-03-21T11:20:56.141Z,444.26
2023-03-21T11:21:56.845Z,444.55
2023-03-21T11:22:56.832Z,441.90
2023-03-21T11:23:57.338Z,437.27
2023-03-21T11:24:56.781Z,435.55
2023-03-21T11:25:56.765Z,434.14
2023-03-21T11:26:56.779Z,434.70
2023-03-21T11:27:56.764Z,436.41
2023-03-21T11:28:56.041Z,436.70
2023-03-21T11:29:56.737Z,429.11
2023-03-21T11:30:56.741Z,427.73
2023-03-21T11:31:56.715Z,428.56
2023-03-21T11:32:56.680Z,424.73
2023-03-21T11:33:56.673Z,427.73
2023-03-21T11:34:56.891Z,427.73
2023-03-21T11:35:56.637Z,426.09
2023-03-21T11:36:56.633Z,423.12
2023-03-21T11:37:56.673Z,419.13
2023-03-21T11:38:56.598Z,418.34
2023-03-21T11:39:56.589Z,417.03
2023-03-21T11:40:56.566Z,418.34
2023-03-21T11:41:56.561Z,418.60
2023-03-21T11:42:56.584Z,415.99
2023-03-21T11:43:56.537Z,416.51
2023-03-21T11:44:56.259Z,414.70
2023-03-21T11:45:56.768Z,418.86
2023-03-21T11:46:56.258Z,412.39
2023-03-21T11:47:56.316Z,409.35
2023-03-21T11:48:56.460Z,401.46
2023-03-21T11:50:04.659Z,396.45
2023-03-21T11:50:57.117Z,390.42
2023-03-21T11:51:56.425Z,384.34
2023-03-21T11:52:56.269Z,376.86
2023-03-21T11:53:56.397Z,380.83
2023-03-21T11:54:56.386Z,386.79
2023-03-21T11:55:56.385Z,391.33
2023-03-21T11:56:56.273Z,387.69
2023-03-21T11:57:58.030Z,381.70
2023-03-21T11:58:56.337Z,383.90
2023-03-21T11:59:56.312Z,385.90
2023-03-21T12:00:56.279Z,386.79
2023-03-21T12:01:57.020Z,385.01
2023-03-21T12:02:57.060Z,383.90
2023-03-21T12:03:57.027Z,380.83
2023-03-21T12:04:56.251Z,377.73
2023-03-21T12:05:56.231Z,375.57
2023-03-21T12:06:56.196Z,369.23
2023-03-21T12:07:56.210Z,367.16
2023-03-21T12:08:56.198Z,359.52
2023-03-21T12:09:56.183Z,359.52
2023-03-21T12:10:56.161Z,359.13
2023-03-21T12:11:56.120Z,356.01
2023-03-21T12:12:56.130Z,354.47
2023-03-21T12:13:56.120Z,355.24
2023-03-21T12:14:56.116Z,349.56
2023-03-21T12:15:56.150Z,351.06
2023-03-21T12:16:56.046Z,351.81
2023-03-21T12:17:56.068Z,346.97
2023-03-21T12:18:56.058Z,349.56
2023-03-21T12:19:56.045Z,346.24
2023-03-21T12:20:56.024Z,346.97
2023-03-21T12:21:56.005Z,343.70
2023-03-21T12:22:56.029Z,339.79
2023-03-21T12:23:55.983Z,340.14
2023-03-21T12:24:55.992Z,338.73
2023-03-21T12:25:55.962Z,338.73
2023-03-21T12:26:57.479Z,339.79
2023-03-21T12:27:55.939Z,335.96
2023-03-21T12:28:56.628Z,338.04